createdAt,value
2017-06-20T00:02:03.348Z,18.60
2017-06-20T00:04:32.337Z,18.60
2017-06-20T00:07:01.362Z,18.50
2017-06-20T00:09:30.324Z,18.30
2017-06-20T00:11:59.354Z,18.30
2017-06-20T00:14:28.406Z,18.40
2017-06-20T00:16:57.385Z,18.40
2017-06-20T00:19:26.374Z,18.40
2017-06-20T00:21:55.308Z,18.40
2017-06-20T00:24:24.324Z,18.40
2017-06-20T00:26:53.380Z,18.40
2017-06-20T00:29:22.368Z,18.40
2017-06-20T00:31:51.324Z,18.30
2017-06-20T00:34:20.340Z,18.30
2017-06-20T00:36:51.297Z,18.30
2017-06-20T00:39:20.281Z,18.40
2017-06-20T00:41:49.420Z,18.30
2017-06-20T00:44:18.681Z,18.30
2017-06-20T00:46:47.631Z,18.30
2017-06-20T00:49:16.573Z,18.20
2017-06-20T00:51:45.530Z,18.10
2017-06-20T00:54:14.573Z,18.10
2017-06-20T00:56:43.544Z,18.10
2017-06-20T00:59:12.533Z,18.00
2017-06-20T01:01:41.483Z,18.00
2017-06-20T01:04:10.442Z,18.00
2017-06-20T01:06:39.493Z,18.00
2017-06-20T01:09:08.512Z,17.90
2017-06-20T01:11:37.486Z,17.90
2017-06-20T01:14:06.485Z,17.80
2017-06-20T01:16:35.481Z,17.80
2017-06-20T01:19:04.466Z,17.80
2017-06-20T01:21:33.580Z,17.80
2017-06-20T01:24:02.581Z,17.70
2017-06-20T01:26:31.552Z,17.80
2017-06-20T01:29:00.599Z,17.80
2017-06-20T01:31:29.588Z,17.70
2017-06-20T01:33:58.586Z,17.70
2017-06-20T01:36:27.705Z,17.60
2017-06-20T01:38:56.734Z,17.40
2017-06-20T01:41:25.741Z,17.50
2017-06-20T01:43:54.730Z,17.40
2017-06-20T01:46:23.762Z,17.40
2017-06-20T01:48:52.894Z,17.40
2017-06-20T01:51:22.002Z,17.40
2017-06-20T01:53:51.063Z,17.40
2017-06-20T01:56:20.206Z,17.50
2017-06-20T01:58:49.253Z,17.50
2017-06-20T02:01:18.412Z,17.50
2017-06-20T02:03:47.404Z,17.40
2017-06-20T02:06:16.465Z,17.40
2017-06-20T02:08:45.509Z,17.40
2017-06-20T02:11:14.654Z,17.40
2017-06-20T02:13:43.673Z,17.40
2017-06-20T02:16:12.719Z,17.30
2017-06-20T02:18:41.693Z,17.30
2017-06-20T02:21:10.730Z,17.30
2017-06-20T02:23:39.762Z,17.40
2017-06-20T02:26:08.751Z,17.40
2017-06-20T02:28:37.795Z,17.40
2017-06-20T02:31:06.906Z,17.40
2017-06-20T02:33:35.940Z,17.40
2017-06-20T02:36:04.934Z,17.40
2017-06-20T02:38:33.972Z,17.30
2017-06-20T02:41:02.931Z,17.40
2017-06-20T02:43:31.904Z,17.30
2017-06-20T02:46:00.865Z,17.30
2017-06-20T02:48:29.860Z,17.40
2017-06-20T02:50:58.883Z,17.50
2017-06-20T02:53:27.844Z,17.50
2017-06-20T02:55:56.786Z,17.60
2017-06-20T02:58:25.808Z,17.60
2017-06-20T03:00:54.843Z,17.60
2017-06-20T03:03:23.870Z,17.60
2017-06-20T03:05:52.907Z,17.60
2017-06-20T03:08:21.834Z,17.60
2017-06-20T03:10:59.619Z,17.50
2017-06-20T03:13:28.592Z,17.40
2017-06-20T03:15:57.805Z,17.40
2017-06-20T03:18:26.789Z,17.30
2017-06-20T03:20:55.753Z,17.30
2017-06-20T03:23:24.721Z,17.30
2017-06-20T03:25:54.031Z,17.30
2017-06-20T03:28:23.102Z,17.30
2017-06-20T03:30:52.053Z,17.30
2017-06-20T03:33:21.053Z,17.30
2017-06-20T03:35:49.999Z,17.30
2017-06-20T03:38:19.927Z,17.20
2017-06-20T03:40:48.953Z,17.30
2017-06-20T03:43:18.006Z,17.20
2017-06-20T03:45:47.023Z,17.20
2017-06-20T03:48:16.033Z,17.20
2017-06-20T03:50:45.094Z,17.30
2017-06-20T03:53:14.099Z,17.30
2017-06-20T03:55:43.046Z,17.30
2017-06-20T03:58:12.030Z,17.40
2017-06-20T04:00:41.629Z,17.40
2017-06-20T04:03:10.633Z,17.50
2017-06-20T04:05:40.036Z,17.50
2017-06-20T04:08:09.102Z,17.60
2017-06-20T04:10:38.079Z,17.70
2017-06-20T04:13:07.046Z,17.70
2017-06-20T04:15:36.062Z,17.50
2017-06-20T04:18:05.063Z,17.40
2017-06-20T04:20:38.226Z,17.30
2017-06-20T04:23:07.257Z,17.20
2017-06-20T04:25:36.250Z,17.20
2017-06-20T04:28:05.272Z,17.20
2017-06-20T04:30:34.242Z,17.20
2017-06-20T04:33:03.257Z,17.20
2017-06-20T04:35:32.266Z,17.20
2017-06-20T04:38:01.254Z,17.30
2017-06-20T04:40:30.311Z,17.40
2017-06-20T04:42:59.436Z,17.50
2017-06-20T04:45:28.432Z,17.70
2017-06-20T04:47:57.380Z,18.10
2017-06-20T04:50:26.487Z,18.60
2017-06-20T04:52:55.698Z,19.10
2017-06-20T04:55:24.689Z,19.40
2017-06-20T04:57:53.735Z,19.80
2017-06-20T05:00:22.685Z,20.30
2017-06-20T05:02:51.752Z,20.80
2017-06-20T05:05:20.796Z,21.30
2017-06-20T05:07:49.870Z,21.80
2017-06-20T05:10:18.889Z,22.20
2017-06-20T05:12:47.931Z,22.70
2017-06-20T05:15:16.952Z,23.40
2017-06-20T05:17:50.065Z,23.60
2017-06-20T05:20:19.114Z,23.60
2017-06-20T05:22:50.575Z,23.70
2017-06-20T05:25:19.621Z,24.00
2017-06-20T05:27:51.469Z,24.80
2017-06-20T05:30:20.825Z,25.80
2017-06-20T05:32:53.203Z,26.30
2017-06-20T05:35:27.432Z,26.00
2017-06-20T05:37:56.495Z,26.00
2017-06-20T05:40:25.558Z,25.40
2017-06-20T05:42:54.553Z,25.30
2017-06-20T05:45:23.566Z,25.50
2017-06-20T05:47:52.574Z,25.40
2017-06-20T05:50:21.659Z,25.40
2017-06-20T05:52:50.637Z,25.50
2017-06-20T05:55:19.636Z,25.40
2017-06-20T05:57:48.621Z,25.50
2017-06-20T06:00:17.673Z,25.10
2017-06-20T06:02:46.621Z,25.20
2017-06-20T06:05:15.614Z,25.80
2017-06-20T06:07:44.710Z,26.10
2017-06-20T06:10:13.702Z,26.90
2017-06-20T06:12:42.730Z,27.70
2017-06-20T06:15:11.825Z,28.50
2017-06-20T06:17:40.910Z,28.90
2017-06-20T06:20:10.005Z,29.40
2017-06-20T06:22:38.954Z,29.80
2017-06-20T06:25:08.005Z,30.20
2017-06-20T06:27:36.998Z,30.70
2017-06-20T06:30:06.038Z,30.90
2017-06-20T06:32:35.576Z,30.80
2017-06-20T06:35:04.162Z,30.60
2017-06-20T06:37:33.188Z,30.10
2017-06-20T06:40:02.390Z,30.50
2017-06-20T06:42:31.488Z,30.80
2017-06-20T06:45:00.443Z,31.60
2017-06-20T06:47:29.776Z,32.10
2017-06-20T06:49:58.823Z,32.90
2017-06-20T06:52:27.790Z,33.20
2017-06-20T06:54:56.762Z,33.20
2017-06-20T06:57:26.479Z,33.90
2017-06-20T06:59:55.458Z,34.30
2017-06-20T07:02:29.719Z,34.80
2017-06-20T07:04:58.725Z,35.20
2017-06-20T07:07:27.721Z,35.10
2017-06-20T07:09:56.790Z,35.40
2017-06-20T07:12:25.780Z,35.50
2017-06-20T07:14:54.760Z,35.50
2017-06-20T07:17:23.785Z,35.80
2017-06-20T07:19:52.845Z,35.80
2017-06-20T07:22:21.926Z,36.20
2017-06-20T07:24:51.038Z,36.70
2017-06-20T07:27:20.140Z,36.60
2017-06-20T07:29:49.167Z,37.10
2017-06-20T07:32:18.181Z,37.30
2017-06-20T07:34:47.244Z,37.80
2017-06-20T07:37:16.240Z,37.90
2017-06-20T07:39:45.284Z,38.10
2017-06-20T07:42:14.295Z,38.10
2017-06-20T07:44:43.305Z,37.70
2017-06-20T07:47:12.354Z,37.90
2017-06-20T07:49:41.405Z,38.10
2017-06-20T07:52:10.586Z,38.30
2017-06-20T07:54:40.000Z,37.50
2017-06-20T07:57:09.010Z,36.30
2017-06-20T07:59:38.053Z,36.50
2017-06-20T08:02:07.101Z,36.30
2017-06-20T08:04:36.119Z,34.50
2017-06-20T08:07:05.166Z,34.90
2017-06-20T08:09:34.300Z,35.60
2017-06-20T08:12:03.343Z,36.20
2017-06-20T08:14:32.472Z,37.30
2017-06-20T08:17:01.636Z,36.60
2017-06-20T08:19:34.004Z,36.60
2017-06-20T08:22:07.209Z,37.30
2017-06-20T08:24:36.387Z,37.60
2017-06-20T08:27:05.758Z,36.80
2017-06-20T08:29:34.824Z,37.30
2017-06-20T08:32:03.821Z,37.60
2017-06-20T08:34:32.823Z,37.90
2017-06-20T08:37:05.975Z,38.50
2017-06-20T08:39:34.974Z,38.80
2017-06-20T08:42:04.001Z,38.40
2017-06-20T08:44:33.185Z,38.40
2017-06-20T08:47:02.963Z,38.00
2017-06-20T08:49:32.054Z,38.30
2017-06-20T08:52:01.192Z,38.00
2017-06-20T08:54:30.423Z,38.90
2017-06-20T08:56:59.582Z,39.40
2017-06-20T08:59:28.644Z,40.00
2017-06-20T09:01:57.648Z,39.60
2017-06-20T09:04:26.687Z,39.10
2017-06-20T09:06:55.772Z,38.80
2017-06-20T09:09:24.883Z,39.20
2017-06-20T09:11:53.872Z,39.40
2017-06-20T09:14:22.890Z,39.40
2017-06-20T09:16:51.977Z,39.70
2017-06-20T09:19:21.118Z,40.40
2017-06-20T09:21:50.232Z,40.80
2017-06-20T09:24:19.360Z,41.30
2017-06-20T09:26:48.403Z,40.60
2017-06-20T09:29:17.466Z,41.10
2017-06-20T09:31:46.638Z,40.90
2017-06-20T09:34:15.713Z,40.60
2017-06-20T09:36:44.790Z,39.90
2017-06-20T09:39:13.766Z,39.90
2017-06-20T09:41:42.827Z,40.90
2017-06-20T09:44:12.031Z,39.80
2017-06-20T09:46:41.143Z,40.30
2017-06-20T09:49:10.310Z,40.50
2017-06-20T09:51:39.403Z,38.20
2017-06-20T09:54:09.102Z,39.10
2017-06-20T09:56:38.221Z,39.60
2017-06-20T09:59:07.383Z,40.20
2017-06-20T10:01:36.604Z,38.50
2017-06-20T10:04:05.919Z,37.40
2017-06-20T10:06:35.701Z,36.60
2017-06-20T10:09:04.971Z,36.50
2017-06-20T10:11:34.298Z,37.20
2017-06-20T10:14:03.838Z,37.40
2017-06-20T10:16:32.999Z,38.80
2017-06-20T10:19:02.168Z,39.50
2017-06-20T10:21:31.274Z,39.30
2017-06-20T10:24:00.394Z,38.50
2017-06-20T10:26:29.431Z,37.20
2017-06-20T10:29:00.778Z,37.70
2017-06-20T10:31:29.906Z,38.70
2017-06-20T10:33:59.046Z,37.40
2017-06-20T10:36:28.141Z,36.60
2017-06-20T10:38:57.261Z,35.90
2017-06-20T10:41:26.430Z,35.50
2017-06-20T10:43:55.502Z,36.20
2017-06-20T10:46:24.917Z,36.80
2017-06-20T10:51:31.088Z,37.70
2017-06-20T10:54:00.164Z,36.30
2017-06-20T10:56:29.484Z,37.00
2017-06-20T10:58:58.588Z,38.00
2017-06-20T11:01:27.771Z,37.40
2017-06-20T11:03:57.628Z,37.80
2017-06-20T11:06:26.786Z,37.80
2017-06-20T11:08:55.872Z,38.70
2017-06-20T11:11:25.144Z,38.60
2017-06-20T11:13:54.492Z,38.70
2017-06-20T11:16:23.973Z,38.40
2017-06-20T11:18:53.780Z,37.40
2017-06-20T11:21:22.864Z,37.10
2017-06-20T11:23:52.280Z,36.60
2017-06-20T11:26:21.578Z,35.70
2017-06-20T11:28:51.109Z,35.00
2017-06-20T11:31:20.190Z,34.90
2017-06-20T11:33:49.364Z,35.80
2017-06-20T11:36:19.055Z,36.90
2017-06-20T11:38:48.306Z,37.60
2017-06-20T11:41:17.384Z,38.30
2017-06-20T11:43:46.417Z,38.80
2017-06-20T11:46:15.457Z,38.10
2017-06-20T11:48:44.558Z,38.20
2017-06-20T11:51:15.127Z,38.40
2017-06-20T11:53:49.367Z,37.40
2017-06-20T11:56:18.769Z,37.40
2017-06-20T11:58:47.830Z,36.60
2017-06-20T12:01:16.935Z,36.80
2017-06-20T12:03:46.102Z,36.40
2017-06-20T12:06:15.166Z,36.20
2017-06-20T12:08:44.399Z,35.30
2017-06-20T12:11:18.468Z,34.40
2017-06-20T12:13:47.480Z,33.60
2017-06-20T12:16:16.542Z,33.60
2017-06-20T12:18:45.763Z,33.40
2017-06-20T12:21:14.768Z,33.20
2017-06-20T12:23:43.799Z,32.30
2017-06-20T12:26:13.553Z,31.40
2017-06-20T12:28:42.550Z,31.20
2017-06-20T12:31:11.594Z,30.40
2017-06-20T12:33:40.657Z,30.60
2017-06-20T12:36:09.760Z,30.90
2017-06-20T12:38:38.824Z,31.30
2017-06-20T12:41:07.887Z,31.60
2017-06-20T12:43:36.921Z,32.20
2017-06-20T12:46:06.011Z,31.70
2017-06-20T12:48:35.042Z,31.70
2017-06-20T12:51:04.801Z,32.20
2017-06-20T12:53:33.892Z,32.60
2017-06-20T12:56:03.018Z,32.40
2017-06-20T12:58:32.188Z,31.70
2017-06-20T13:01:01.252Z,31.40
2017-06-20T13:03:30.659Z,30.50
2017-06-20T13:06:01.271Z,30.40
2017-06-20T13:08:30.311Z,30.80
2017-06-20T13:11:06.714Z,31.30
2017-06-20T13:13:35.711Z,31.20
2017-06-20T13:16:04.684Z,30.40
2017-06-20T13:18:33.945Z,30.10
2017-06-20T13:21:03.764Z,29.60
2017-06-20T13:23:33.373Z,29.30
2017-06-20T13:26:04.104Z,29.10
2017-06-20T13:28:33.448Z,29.40
2017-06-20T13:31:02.559Z,29.30
2017-06-20T13:33:31.721Z,29.30
2017-06-20T13:36:00.871Z,29.40
2017-06-20T13:38:29.981Z,29.30
2017-06-20T13:40:59.455Z,29.00
2017-06-20T13:43:28.419Z,28.80
2017-06-20T13:45:57.433Z,28.50
2017-06-20T13:48:26.582Z,28.40
2017-06-20T13:50:55.634Z,28.20
2017-06-20T13:53:24.806Z,28.10
2017-06-20T13:55:54.065Z,28.30
2017-06-20T13:58:23.453Z,28.10
2017-06-20T14:00:52.780Z,28.10
2017-06-20T14:03:22.185Z,27.90
2017-06-20T14:05:51.531Z,28.10
2017-06-20T14:08:20.692Z,28.00
2017-06-20T14:10:50.544Z,27.90
2017-06-20T14:13:19.795Z,28.00
2017-06-20T14:15:48.806Z,28.00
2017-06-20T14:18:17.869Z,28.10
2017-06-20T14:20:47.822Z,28.20
2017-06-20T14:23:16.882Z,28.20
2017-06-20T14:25:46.266Z,28.20
2017-06-20T14:28:18.479Z,28.30
2017-06-20T14:30:48.693Z,28.70
2017-06-20T14:33:18.074Z,29.00
2017-06-20T14:35:47.571Z,29.00
2017-06-20T14:38:16.867Z,28.80
2017-06-20T14:40:48.534Z,28.80
2017-06-20T14:43:19.026Z,28.90
2017-06-20T14:45:55.830Z,29.00
2017-06-20T14:48:26.180Z,29.20
2017-06-20T14:50:56.348Z,29.10
2017-06-20T14:53:25.730Z,28.60
2017-06-20T14:55:55.385Z,28.70
2017-06-20T14:58:24.830Z,29.00
2017-06-20T15:00:54.163Z,28.90
2017-06-20T15:03:23.710Z,29.00
2017-06-20T15:05:53.127Z,29.00
2017-06-20T15:08:22.217Z,28.90
2017-06-20T15:10:51.940Z,28.60
2017-06-20T15:13:21.328Z,28.50
2017-06-20T15:15:50.886Z,28.30
2017-06-20T15:18:19.921Z,28.10
2017-06-20T15:20:48.990Z,28.10
2017-06-20T15:23:18.023Z,28.20
2017-06-20T15:25:47.152Z,28.40
2017-06-20T15:28:16.503Z,28.30
2017-06-20T15:30:45.518Z,28.20
2017-06-20T15:33:15.180Z,28.30
2017-06-20T15:35:44.380Z,28.40
2017-06-20T15:38:13.662Z,28.20
2017-06-20T15:40:42.807Z,28.10
2017-06-20T15:43:12.038Z,28.10
2017-06-20T15:45:41.301Z,28.30
2017-06-20T15:48:10.746Z,28.10
2017-06-20T15:50:40.208Z,28.10
2017-06-20T15:53:10.355Z,28.00
2017-06-20T15:55:41.610Z,27.60
2017-06-20T15:58:12.945Z,27.60
2017-06-20T16:00:42.450Z,27.50
2017-06-20T16:03:12.085Z,27.40
2017-06-20T16:05:41.765Z,27.40
2017-06-20T16:08:11.458Z,27.30
2017-06-20T16:10:42.583Z,27.20
2017-06-20T16:13:11.974Z,27.30
2017-06-20T16:15:41.295Z,27.60
2017-06-20T16:18:10.614Z,27.80
2017-06-20T16:20:39.987Z,27.90
2017-06-20T16:23:09.836Z,27.90
2017-06-20T16:25:39.382Z,27.90
2017-06-20T16:28:09.176Z,27.60
2017-06-20T16:30:39.252Z,27.40
2017-06-20T16:33:08.539Z,27.30
2017-06-20T16:35:40.514Z,27.20
2017-06-20T16:38:10.337Z,27.00
2017-06-20T16:40:39.721Z,26.90
2017-06-20T16:43:09.175Z,26.90
2017-06-20T16:45:38.359Z,27.00
2017-06-20T16:48:07.489Z,26.90
2017-06-20T16:50:36.566Z,26.90
2017-06-20T16:53:06.822Z,27.00
2017-06-20T16:55:35.975Z,26.90
2017-06-20T16:58:05.234Z,26.90
2017-06-20T17:00:34.339Z,26.90
2017-06-20T17:03:03.446Z,26.70
2017-06-20T17:05:32.602Z,26.70
2017-06-20T17:08:02.009Z,26.70
2017-06-20T17:10:31.097Z,26.50
2017-06-20T17:13:00.095Z,26.40
2017-06-20T17:15:29.191Z,26.30
2017-06-20T17:17:58.315Z,26.40
2017-06-20T17:20:27.612Z,26.20
2017-06-20T17:22:56.659Z,26.20
2017-06-20T17:25:25.821Z,26.20
2017-06-20T17:27:54.851Z,26.20
2017-06-20T17:30:23.965Z,26.10
2017-06-20T17:32:53.036Z,26.10
2017-06-20T17:35:22.115Z,26.00
2017-06-20T17:37:51.126Z,26.10
2017-06-20T17:40:20.193Z,26.10
2017-06-20T17:42:50.350Z,26.10
2017-06-20T17:45:20.152Z,26.10
2017-06-20T17:47:54.031Z,25.90
2017-06-20T17:50:23.403Z,25.90
2017-06-20T17:52:52.502Z,25.80
2017-06-20T17:55:21.622Z,25.70
2017-06-20T17:57:50.988Z,25.40
2017-06-20T18:00:20.081Z,25.30
2017-06-20T18:02:49.156Z,25.20
2017-06-20T18:05:18.199Z,25.20
2017-06-20T18:07:47.331Z,25.10
2017-06-20T18:10:16.321Z,25.00
2017-06-20T18:12:45.354Z,25.00
2017-06-20T18:15:14.373Z,25.00
2017-06-20T18:17:43.502Z,24.90
2017-06-20T18:20:12.580Z,24.90
2017-06-20T18:22:41.675Z,25.00
2017-06-20T18:25:10.732Z,25.00
2017-06-20T18:27:39.817Z,25.00
2017-06-20T18:30:08.854Z,24.90
2017-06-20T18:32:38.101Z,24.80
2017-06-20T18:35:13.226Z,24.80
2017-06-20T18:37:42.294Z,24.90
2017-06-20T18:40:11.704Z,24.80
2017-06-20T18:42:40.874Z,24.70
2017-06-20T18:45:09.896Z,24.70
2017-06-20T18:47:39.182Z,24.60
2017-06-20T18:50:09.908Z,24.50
2017-06-20T18:52:38.967Z,24.40
2017-06-20T18:55:08.111Z,24.30
2017-06-20T18:57:37.272Z,24.20
2017-06-20T19:00:06.692Z,24.20
2017-06-20T19:02:40.234Z,24.10
2017-06-20T19:05:09.411Z,23.90
2017-06-20T19:07:38.634Z,23.80
2017-06-20T19:10:07.722Z,23.70
2017-06-20T19:12:36.748Z,23.60
2017-06-20T19:15:05.836Z,23.50
2017-06-20T19:17:35.658Z,23.40
2017-06-20T19:20:04.795Z,23.30
2017-06-20T19:22:33.875Z,23.30
2017-06-20T19:25:03.260Z,23.30
2017-06-20T19:27:32.494Z,23.20
2017-06-20T19:30:01.630Z,23.10
2017-06-20T19:32:30.744Z,23.20
2017-06-20T19:34:59.784Z,23.10
2017-06-20T19:37:28.812Z,23.00
2017-06-20T19:39:57.953Z,23.00
2017-06-20T19:42:26.978Z,22.90
2017-06-20T19:44:56.073Z,22.90
2017-06-20T19:47:25.128Z,22.70
2017-06-20T19:49:54.175Z,22.70
2017-06-20T19:52:23.253Z,22.60
2017-06-20T19:54:52.360Z,22.50
2017-06-20T19:57:23.871Z,22.50
2017-06-20T19:59:52.956Z,22.50
2017-06-20T20:02:21.972Z,22.40
2017-06-20T20:04:51.036Z,22.30
2017-06-20T20:07:20.415Z,22.30
2017-06-20T20:09:49.430Z,22.20
2017-06-20T20:12:18.478Z,22.10
2017-06-20T20:14:47.574Z,22.00
2017-06-20T20:17:16.584Z,21.90
2017-06-20T20:19:45.765Z,21.80
2017-06-20T20:22:14.831Z,21.70
2017-06-20T20:24:43.858Z,21.70
2017-06-20T20:27:12.833Z,21.60
2017-06-20T20:29:41.850Z,21.60
2017-06-20T20:32:10.954Z,21.60
2017-06-20T20:34:40.027Z,21.60
2017-06-20T20:37:09.169Z,21.50
2017-06-20T20:39:38.203Z,21.50
2017-06-20T20:42:13.435Z,21.40
2017-06-20T20:44:42.480Z,21.30
2017-06-20T20:47:11.536Z,21.20
2017-06-20T20:49:40.561Z,21.20
2017-06-20T20:52:09.694Z,21.20
2017-06-20T20:54:38.677Z,21.10
2017-06-20T20:57:07.789Z,21.10
2017-06-20T20:59:36.819Z,21.10
2017-06-20T21:02:05.892Z,21.10
2017-06-20T21:04:34.915Z,21.00
2017-06-20T21:07:03.969Z,20.90
2017-06-20T21:09:32.993Z,20.80
2017-06-20T21:12:02.013Z,20.80
2017-06-20T21:14:31.057Z,20.70
2017-06-20T21:17:00.106Z,20.60
2017-06-20T21:19:29.170Z,20.60
2017-06-20T21:21:58.134Z,20.50
2017-06-20T21:24:27.205Z,20.40
2017-06-20T21:26:56.251Z,20.30
2017-06-20T21:29:25.294Z,20.40
2017-06-20T21:31:54.278Z,20.20
2017-06-20T21:34:23.341Z,20.10
2017-06-20T21:36:52.309Z,20.20
2017-06-20T21:39:21.310Z,20.20
2017-06-20T21:41:50.659Z,20.10
2017-06-20T21:44:19.642Z,20.10
2017-06-20T21:46:48.622Z,20.00
2017-06-20T21:49:17.627Z,20.00
2017-06-20T21:51:46.676Z,20.00
2017-06-20T21:54:15.663Z,20.00
2017-06-20T21:56:45.671Z,19.90
2017-06-20T21:59:15.786Z,19.90
2017-06-20T22:14:49.729Z,19.80
2017-06-20T22:17:18.902Z,19.30
2017-06-20T22:19:47.902Z,19.30
2017-06-20T22:22:16.901Z,19.30
2017-06-20T22:24:45.886Z,19.30
2017-06-20T22:27:14.870Z,19.30
2017-06-20T22:29:43.845Z,19.20
2017-06-20T22:32:12.805Z,19.20
2017-06-20T22:34:41.794Z,19.10
2017-06-20T22:37:10.791Z,19.00
2017-06-20T22:39:39.770Z,18.90
2017-06-20T22:42:08.848Z,18.80
2017-06-20T22:44:38.243Z,18.80
2017-06-20T22:47:07.261Z,18.70
2017-06-20T22:49:36.261Z,18.70
2017-06-20T22:52:05.220Z,18.70
2017-06-20T22:54:34.249Z,18.80
2017-06-20T22:57:03.249Z,18.80
2017-06-20T22:59:32.233Z,18.60
2017-06-20T23:02:01.207Z,18.60
2017-06-20T23:04:30.221Z,18.60
2017-06-20T23:06:59.262Z,18.60
2017-06-20T23:09:28.286Z,18.50
2017-06-20T23:11:57.282Z,18.40
2017-06-20T23:14:26.248Z,18.40
2017-06-20T23:16:55.257Z,18.40
2017-06-20T23:19:24.252Z,18.40
2017-06-20T23:21:53.207Z,18.30
2017-06-20T23:24:22.176Z,18.30
2017-06-20T23:26:51.145Z,18.30
2017-06-20T23:29:20.137Z,18.30
2017-06-20T23:31:49.085Z,18.30
2017-06-20T23:34:18.049Z,18.30
2017-06-20T23:36:47.053Z,18.30
2017-06-20T23:39:16.037Z,18.20
2017-06-20T23:41:45.025Z,18.00
2017-06-20T23:44:14.037Z,18.00
2017-06-20T23:46:43.001Z,17.90
2017-06-20T23:49:11.936Z,17.80
2017-06-20T23:51:40.902Z,17.80
2017-06-20T23:54:09.862Z,17.70
2017-06-20T23:56:39.022Z,17.60
2017-06-20T23:59:08.819Z,17.40
